sensor_id;sensor_type;location;lat;lon;timestamp;P1;P2;P0
49686;PMS5003;36064;38.180;-122.272;2022-09-01T00:00:01;15.2;14.0;
49686;PMS5003;36064;38.180;-122.272;2022-09-01T00:05:00;14.6;14.4;
49686;PMS5003;36064;38.180;-122.272;2022-09-01T00:10:01;17.6;15.6;
49686;PMS5003;36064;38.180;-122.272;2022-09-01T00:15:00;14.2;13.8;
49686;PMS5003;36064;38.180;-122.272;2022-09-01T00:20:01;17.6;18.2;
49686;PMS5003;36064;38.180;-122.272;2022-09-01T00:25:00;14.6;13.4;
49686;PMS5003;36064;38.180;-122.272;2022-09-01T00:30:00;19.8;15.6;
49686;PMS5003;36064;38.180;-122.272;2022-09-01T00:35:00;19.8;14.0;
49686;PMS5003;36064;38.180;-122.272;2022-09-01T00:40:00;17.4;16.4;
49686;PMS5003;36064;38.180;-122.272;2022-09-01T00:45:00;19.0;17.6;
49686;PMS5003;36064;38.180;-122.272;2022-09-01T00:50:00;16.6;14.8;
49686;PMS5003;36064;38.180;-122.272;2022-09-01T00:55:03;18.4;17.2;
49686;PMS5003;36064;38.180;-122.272;2022-09-01T01:00:04;14.2;13.8;
49686;PMS5003;36064;38.180;-122.272;2022-09-01T01:05:00;15.6;13.8;
49686;PMS5003;36064;38.180;-122.272;2022-09-01T01:10:00;15.8;14.6;
49686;PMS5003;36064;38.180;-122.272;2022-09-01T01:15:00;13.0;12.8;
49686;PMS5003;36064;38.180;-122.272;2022-09-01T01:20:00;14.2;13.4;
49686;PMS5003;36064;38.180;-122.272;2022-09-01T01:25:00;16.4;16.4;
49686;PMS5003;36064;38.180;-122.272;2022-09-01T01:30:00;12.4;11.4;
49686;PMS5003;36064;38.180;-122.272;2022-09-01T01:35:00;13.0;12.6;
49686;PMS5003;36064;38.180;-122.272;2022-09-01T01:40:01;16.8;16.0;
49686;PMS5003;36064;38.180;-122.272;2022-09-01T01:45:00;14.8;14.2;
49686;PMS5003;36064;38.180;-122.272;2022-09-01T01:50:00;13.6;12.6;
49686;PMS5003;36064;38.180;-122.272;2022-09-01T01:55:01;12.0;11.4;
49686;PMS5003;36064;38.180;-122.272;2022-09-01T02:00:00;12.4;12.2;
49686;PMS5003;36064;38.180;-122.272;2022-09-01T02:05:00;15.0;13.4;
49686;PMS5003;36064;38.180;-122.272;2022-09-01T02:10:00;12.8;12.0;
49686;PMS5003;36064;38.180;-122.272;2022-09-01T02:15:10;13.2;13.2;
49686;PMS5003;36064;38.180;-122.272;2022-09-01T02:20:01;16.4;16.2;
49686;PMS5003;36064;38.180;-122.272;2022-09-01T02:25:00;14.4;13.8;
49686;PMS5003;36064;38.180;-122.272;2022-09-01T02:30:01;12.6;11.6;
49686;PMS5003;36064;38.180;-122.272;2022-09-01T02:35:00;13.41;11.4;
49686;PMS5003;36064;38.180;-122.272;2022-09-01T02:40:00;12.8;12.4;
49686;PMS5003;36064;38.180;-122.272;2022-09-01T02:45:00;11.4;11.0;
49686;PMS5003;36064;38.180;-122.272;2022-09-01T02:50:00;12.4;11.6;
49686;PMS5003;36064;38.180;-122.272;2022-09-01T02:55:00;11.4;10.8;
49686;PMS5003;36064;38.180;-122.272;2022-09-01T03:00:00;12.0;10.0;
49686;PMS5003;36064;38.180;-122.272;2022-09-01T03:05:00;10.8;9.6;
49686;PMS5003;36064;38.180;-122.272;2022-09-01T03:10:00;9.99;9.58;
49686;PMS5003;36064;38.180;-122.272;2022-09-01T03:15:02;11.8;11.8;
49686;PMS5003;36064;38.180;-122.272;2022-09-01T03:20:01;12.6;12.2;
49686;PMS5003;36064;38.180;-122.272;2022-09-01T03:25:01;14.2;13.0;
49686;PMS5003;36064;38.180;-122.272;2022-09-01T03:30:01;16.6;15.6;
49686;PMS5003;36064;38.180;-122.272;2022-09-01T03:35:00;12.8;11.4;
49686;PMS5003;36064;38.180;-122.272;2022-09-01T03:40:01;11.0;9.8;
49686;PMS5003;36064;38.180;-122.272;2022-09-01T03:45:00;11.6;10.6;
49686;PMS5003;36064;38.180;-122.272;2022-09-01T03:50:00;12.0;10.8;
49686;PMS5003;36064;38.180;-122.272;2022-09-01T03:55:00;14.2;12.6;
49686;PMS5003;36064;38.180;-122.272;2022-09-01T04:00:00;13.6;13.4;
49686;PMS5003;36064;38.180;-122.272;2022-09-01T04:05:00;10.0;8.8;
49686;PMS5003;36064;38.180;-122.272;2022-09-01T04:10:00;12.0;11.2;
49686;PMS5003;36064;38.180;-122.272;2022-09-01T04:15:00;11.0;11.0;
49686;PMS5003;36064;38.180;-122.272;2022-09-01T04:20:01;12.2;10.8;
49686;PMS5003;36064;38.180;-122.272;2022-09-01T04:25:00;13.4;12.8;
49686;PMS5003;36064;38.180;-122.272;2022-09-01T04:30:00;13.2;12.6;
49686;PMS5003;36064;38.180;-122.272;2022-09-01T04:35:01;14.4;12.8;
49686;PMS5003;36064;38.180;-122.272;2022-09-01T04:40:01;14.8;12.2;
49686;PMS5003;36064;38.180;-122.272;2022-09-01T04:45:00;14.4;12.4;
49686;PMS5003;36064;38.180;-122.272;2022-09-01T04:50:00;11.8;12.4;
49686;PMS5003;36064;38.180;-122.272;2022-09-01T04:55:00;10.6;10.2;
49686;PMS5003;36064;38.180;-122.272;2022-09-01T05:00:00;14.0;13.0;
49686;PMS5003;36064;38.180;-122.272;2022-09-01T05:05:00;13.2;12.6;
49686;PMS5003;36064;38.180;-122.272;2022-09-01T05:10:00;9.2;8.8;
49686;PMS5003;36064;38.180;-122.272;2022-09-01T05:15:00;10.0;10.0;
49686;PMS5003;36064;38.180;-122.272;2022-09-01T05:20:00;15.2;13.4;
49686;PMS5003;36064;38.180;-122.272;2022-09-01T05:25:01;10.6;12.0;
49686;PMS5003;36064;38.180;-122.272;2022-09-01T05:30:00;11.4;8.2;
49686;PMS5003;36064;38.180;-122.272;2022-09-01T05:35:00;12.2;11.8;
49686;PMS5003;36064;38.180;-122.272;2022-09-01T05:40:00;15.6;13.6;
49686;PMS5003;36064;38.180;-122.272;2022-09-01T05:45:00;11.8;9.6;
49686;PMS5003;36064;38.180;-122.272;2022-09-01T05:50:00;11.2;10.8;
49686;PMS5003;36064;38.180;-122.272;2022-09-01T05:55:00;12.0;8.8;
49686;PMS5003;36064;38.180;-122.272;2022-09-01T06:00:02;13.8;11.4;
49686;PMS5003;36064;38.180;-122.272;2022-09-01T06:05:00;9.8;9.0;
49686;PMS5003;36064;38.180;-122.272;2022-09-01T06:10:00;15.0;12.2;
49686;PMS5003;36064;38.180;-122.272;2022-09-01T06:15:00;14.4;11.2;
49686;PMS5003;36064;38.180;-122.272;2022-09-01T06:20:01;15.6;14.6;
49686;PMS5003;36064;38.180;-122.272;2022-09-01T06:25:00;12.4;11.2;
49686;PMS5003;36064;38.180;-122.272;2022-09-01T06:30:00;15.0;13.8;
49686;PMS5003;36064;38.180;-122.272;2022-09-01T06:35:00;14.8;12.8;
49686;PMS5003;36064;38.180;-122.272;2022-09-01T06:40:00;15.4;13.8;
49686;PMS5003;36064;38.180;-122.272;2022-09-01T06:45:00;15.6;13.8;
49686;PMS5003;36064;38.180;-122.272;2022-09-01T06:50:00;12.4;10.0;
49686;PMS5003;36064;38.180;-122.272;2022-09-01T06:55:00;14.6;14.2;
49686;PMS5003;36064;38.180;-122.272;2022-09-01T07:00:00;13.4;13.4;
49686;PMS5003;36064;38.180;-122.272;2022-09-01T07:05:00;12.6;12.6;
49686;PMS5003;36064;38.180;-122.272;2022-09-01T07:10:00;13.0;11.8;
49686;PMS5003;36064;38.180;-122.272;2022-09-01T07:15:00;14.2;12.2;
49686;PMS5003;36064;38.180;-122.272;2022-09-01T07:20:00;17.8;14.2;
49686;PMS5003;36064;38.180;-122.272;2022-09-01T07:25:01;12.6;12.6;
49686;PMS5003;36064;38.180;-122.272;2022-09-01T07:30:00;12.4;12.4;
49686;PMS5003;36064;38.180;-122.272;2022-09-01T07:35:01;13.2;12.4;
49686;PMS5003;36064;38.180;-122.272;2022-09-01T07:40:00;12.8;11.0;
49686;PMS5003;36064;38.180;-122.272;2022-09-01T07:45:00;13.4;12.4;
49686;PMS5003;36064;38.180;-122.272;2022-09-01T07:50:00;11.4;10.8;
49686;PMS5003;36064;38.180;-122.272;2022-09-01T07:55:00;12.2;10.8;
49686;PMS5003;36064;38.180;-122.272;2022-09-01T08:00:00;12.4;11.4;
49686;PMS5003;36064;38.180;-122.272;2022-09-01T08:05:00;13.4;12.6;
49686;PMS5003;36064;38.180;-122.272;2022-09-01T08:10:00;15.0;13.8;
49686;PMS5003;36064;38.180;-122.272;2022-09-01T08:15:00;16.0;15.6;
49686;PMS5003;36064;38.180;-122.272;2022-09-01T08:20:00;16.2;13.4;
49686;PMS5003;36064;38.180;-122.272;2022-09-01T08:25:00;12.8;11.4;
49686;PMS5003;36064;38.180;-122.272;2022-09-01T08:30:01;12.4;12.2;
49686;PMS5003;36064;38.180;-122.272;2022-09-01T08:35:00;12.2;12.0;
49686;PMS5003;36064;38.180;-122.272;2022-09-01T08:40:00;13.0;11.8;
49686;PMS5003;36064;38.180;-122.272;2022-09-01T08:45:02;13.0;13.0;
49686;PMS5003;36064;38.180;-122.272;2022-09-01T08:50:00;10.4;10.0;
49686;PMS5003;36064;38.180;-122.272;2022-09-01T08:55:02;14.2;14.2;
49686;PMS5003;36064;38.180;-122.272;2022-09-01T09:00:00;17.2;14.2;
49686;PMS5003;36064;38.180;-122.272;2022-09-01T09:05:05;13.4;12.4;
49686;PMS5003;36064;38.180;-122.272;2022-09-01T09:10:04;14.2;13.4;
49686;PMS5003;36064;38.180;-122.272;2022-09-01T09:15:03;13.4;13.0;
49686;PMS5003;36064;38.180;-122.272;2022-09-01T09:20:01;16.2;15.4;
49686;PMS5003;36064;38.180;-122.272;2022-09-01T09:25:02;15.6;15.4;
49686;PMS5003;36064;38.180;-122.272;2022-09-01T09:30:02;14.8;13.4;
49686;PMS5003;36064;38.180;-122.272;2022-09-01T09:35:02;13.6;12.4;
49686;PMS5003;36064;38.180;-122.272;2022-09-01T09:40:06;14.6;14.2;
49686;PMS5003;36064;38.180;-122.272;2022-09-01T09:45:00;18.6;17.0;
49686;PMS5003;36064;38.180;-122.272;2022-09-01T09:50:11;12.6;14.0;
49686;PMS5003;36064;38.180;-122.272;2022-09-01T09:55:01;12.2;10.6;
49686;PMS5003;36064;38.180;-122.272;2022-09-01T10:00:05;16.6;15.0;
49686;PMS5003;36064;38.180;-122.272;2022-09-01T10:05:06;13.2;12.4;
49686;PMS5003;36064;38.180;-122.272;2022-09-01T10:10:01;14.6;12.6;
49686;PMS5003;36064;38.180;-122.272;2022-09-01T10:15:01;14.8;13.2;
49686;PMS5003;36064;38.180;-122.272;2022-09-01T10:20:02;18.2;14.4;
49686;PMS5003;36064;38.180;-122.272;2022-09-01T10:25:00;15.8;13.6;
49686;PMS5003;36064;38.180;-122.272;2022-09-01T10:30:03;16.2;15.4;
49686;PMS5003;36064;38.180;-122.272;2022-09-01T10:35:01;18.4;16.4;
49686;PMS5003;36064;38.180;-122.272;2022-09-01T10:40:09;14.6;11.6;
49686;PMS5003;36064;38.180;-122.272;2022-09-01T10:45:01;14.4;11.0;
49686;PMS5003;36064;38.180;-122.272;2022-09-01T10:50:01;14.2;13.8;
49686;PMS5003;36064;38.180;-122.272;2022-09-01T10:55:00;14.6;12.4;
49686;PMS5003;36064;38.180;-122.272;2022-09-01T11:15:01;15.2;14.0;
49686;PMS5003;36064;38.180;-122.272;2022-09-01T11:20:02;19.2;15.59;
49686;PMS5003;36064;38.180;-122.272;2022-09-01T11:30:02;16.8;15.4;
49686;PMS5003;36064;38.180;-122.272;2022-09-01T11:35:01;14.2;13.8;
49686;PMS5003;36064;38.180;-122.272;2022-09-01T11:40:02;15.6;16.0;
49686;PMS5003;36064;38.180;-122.272;2022-09-01T11:45:02;15.2;14.0;
49686;PMS5003;36064;38.180;-122.272;2022-09-01T11:50:01;20.0;17.2;
49686;PMS5003;36064;38.180;-122.272;2022-09-01T11:55:01;17.4;15.2;
49686;PMS5003;36064;38.180;-122.272;2022-09-01T12:00:03;14.6;13.8;
49686;PMS5003;36064;38.180;-122.272;2022-09-01T12:05:01;14.6;13.4;
49686;PMS5003;36064;38.180;-122.272;2022-09-01T12:10:00;15.8;12.4;
49686;PMS5003;36064;38.180;-122.272;2022-09-01T12:15:02;15.6;14.2;
49686;PMS5003;36064;38.180;-122.272;2022-09-01T12:25:00;12.8;11.2;
49686;PMS5003;36064;38.180;-122.272;2022-09-01T12:30:00;14.0;14.0;
49686;PMS5003;36064;38.180;-122.272;2022-09-01T12:35:14;14.6;13.8;
49686;PMS5003;36064;38.180;-122.272;2022-09-01T12:40:00;14.6;13.2;
49686;PMS5003;36064;38.180;-122.272;2022-09-01T12:45:01;15.6;13.4;
49686;PMS5003;36064;38.180;-122.272;2022-09-01T12:50:02;14.6;12.6;
49686;PMS5003;36064;38.180;-122.272;2022-09-01T12:55:11;17.8;18.6;
49686;PMS5003;36064;38.180;-122.272;2022-09-01T13:00:08;19.8;18.0;
49686;PMS5003;36064;38.180;-122.272;2022-09-01T13:10:00;18.8;16.6;
49686;PMS5003;36064;38.180;-122.272;2022-09-01T13:15:00;17.0;14.6;
49686;PMS5003;36064;38.180;-122.272;2022-09-01T13:20:00;15.2;12.0;
49686;PMS5003;36064;38.180;-122.272;2022-09-01T13:25:00;22.2;18.2;
49686;PMS5003;36064;38.180;-122.272;2022-09-01T13:30:00;16.4;14.8;
49686;PMS5003;36064;38.180;-122.272;2022-09-01T13:35:00;20.0;18.6;
49686;PMS5003;36064;38.180;-122.272;2022-09-01T13:40:00;16.0;15.4;
49686;PMS5003;36064;38.180;-122.272;2022-09-01T13:45:00;18.2;17.6;
49686;PMS5003;36064;38.180;-122.272;2022-09-01T13:50:00;15.6;14.0;
49686;PMS5003;36064;38.180;-122.272;2022-09-01T13:55:00;18.8;17.0;
49686;PMS5003;36064;38.180;-122.272;2022-09-01T14:00:01;21.2;18.0;
49686;PMS5003;36064;38.180;-122.272;2022-09-01T14:05:00;14.4;13.2;
49686;PMS5003;36064;38.180;-122.272;2022-09-01T14:10:00;14.0;13.2;
49686;PMS5003;36064;38.180;-122.272;2022-09-01T14:15:00;13.4;13.0;
49686;PMS5003;36064;38.180;-122.272;2022-09-01T14:20:00;18.8;16.2;
49686;PMS5003;36064;38.180;-122.272;2022-09-01T14:25:00;19.2;18.2;
49686;PMS5003;36064;38.180;-122.272;2022-09-01T14:30:00;15.8;15.4;
49686;PMS5003;36064;38.180;-122.272;2022-09-01T14:35:01;15.4;13.6;
49686;PMS5003;36064;38.180;-122.272;2022-09-01T14:40:00;19.6;17.6;
49686;PMS5003;36064;38.180;-122.272;2022-09-01T14:45:00;20.2;18.2;
49686;PMS5003;36064;38.180;-122.272;2022-09-01T14:50:00;14.2;14.0;
49686;PMS5003;36064;38.180;-122.272;2022-09-01T14:55:00;16.4;16.0;
49686;PMS5003;36064;38.180;-122.272;2022-09-01T15:00:00;17.6;16.0;
49686;PMS5003;36064;38.180;-122.272;2022-09-01T15:05:00;17.2;15.2;
49686;PMS5003;36064;38.180;-122.272;2022-09-01T15:10:00;20.0;19.0;
49686;PMS5003;36064;38.180;-122.272;2022-09-01T15:15:01;18.4;17.2;
49686;PMS5003;36064;38.180;-122.272;2022-09-01T15:20:01;20.0;17.2;
49686;PMS5003;36064;38.180;-122.272;2022-09-01T15:25:00;20.8;19.6;
49686;PMS5003;36064;38.180;-122.272;2022-09-01T15:30:00;17.0;15.2;
49686;PMS5003;36064;38.180;-122.272;2022-09-01T15:35:00;15.2;12.6;
49686;PMS5003;36064;38.180;-122.272;2022-09-01T15:40:00;15.8;12.8;
49686;PMS5003;36064;38.180;-122.272;2022-09-01T15:45:01;15.0;14.6;
49686;PMS5003;36064;38.180;-122.272;2022-09-01T15:50:01;14.6;14.2;
49686;PMS5003;36064;38.180;-122.272;2022-09-01T15:55:01;12.4;12.0;
49686;PMS5003;36064;38.180;-122.272;2022-09-01T16:00:01;12.6;11.6;
49686;PMS5003;36064;38.180;-122.272;2022-09-01T16:05:01;15.4;13.4;
49686;PMS5003;36064;38.180;-122.272;2022-09-01T16:10:00;13.2;12.4;
49686;PMS5003;36064;38.180;-122.272;2022-09-01T16:15:00;14.4;12.0;
49686;PMS5003;36064;38.180;-122.272;2022-09-01T16:20:01;13.2;13.0;
49686;PMS5003;36064;38.180;-122.272;2022-09-01T16:25:03;12.8;12.4;
49686;PMS5003;36064;38.180;-122.272;2022-09-01T16:30:01;15.4;15.0;
49686;PMS5003;36064;38.180;-122.272;2022-09-01T16:35:00;14.6;15.2;
49686;PMS5003;36064;38.180;-122.272;2022-09-01T16:40:02;16.0;14.0;
49686;PMS5003;36064;38.180;-122.272;2022-09-01T16:45:03;12.6;12.4;
49686;PMS5003;36064;38.180;-122.272;2022-09-01T16:50:04;11.4;10.2;
49686;PMS5003;36064;38.180;-122.272;2022-09-01T16:55:06;13.6;12.2;
49686;PMS5003;36064;38.180;-122.272;2022-09-01T17:00:01;14.8;13.6;
49686;PMS5003;36064;38.180;-122.272;2022-09-01T17:05:02;13.6;15.4;
49686;PMS5003;36064;38.180;-122.272;2022-09-01T17:10:02;18.6;17.4;
49686;PMS5003;36064;38.180;-122.272;2022-09-01T17:15:02;16.6;16.2;
49686;PMS5003;36064;38.180;-122.272;2022-09-01T17:20:01;16.8;13.8;
49686;PMS5003;36064;38.180;-122.272;2022-09-01T17:25:01;16.6;13.6;
49686;PMS5003;36064;38.180;-122.272;2022-09-01T17:30:04;17.6;14.6;
49686;PMS5003;36064;38.180;-122.272;2022-09-01T17:35:05;16.0;14.6;
49686;PMS5003;36064;38.180;-122.272;2022-09-01T17:40:03;13.4;12.6;
49686;PMS5003;36064;38.180;-122.272;2022-09-01T17:45:03;12.0;11.8;
49686;PMS5003;36064;38.180;-122.272;2022-09-01T17:50:02;14.8;13.0;
49686;PMS5003;36064;38.180;-122.272;2022-09-01T17:55:01;15.2;13.8;
49686;PMS5003;36064;38.180;-122.272;2022-09-01T18:00:03;12.0;12.6;
49686;PMS5003;36064;38.180;-122.272;2022-09-01T18:05:03;14.4;13.6;
49686;PMS5003;36064;38.180;-122.272;2022-09-01T18:10:02;12.2;11.4;
49686;PMS5003;36064;38.180;-122.272;2022-09-01T18:15:03;14.2;13.8;
49686;PMS5003;36064;38.180;-122.272;2022-09-01T18:20:04;11.8;11.4;
49686;PMS5003;36064;38.180;-122.272;2022-09-01T18:25:02;12.0;11.0;
49686;PMS5003;36064;38.180;-122.272;2022-09-01T18:30:00;11.0;10.2;
49686;PMS5003;36064;38.180;-122.272;2022-09-01T18:35:05;13.0;11.6;
49686;PMS5003;36064;38.180;-122.272;2022-09-01T18:40:02;10.4;9.6;
49686;PMS5003;36064;38.180;-122.272;2022-09-01T18:45:03;10.8;10.0;
49686;PMS5003;36064;38.180;-122.272;2022-09-01T18:50:04;12.2;12.0;
49686;PMS5003;36064;38.180;-122.272;2022-09-01T18:55:02;10.6;10.2;
49686;PMS5003;36064;38.180;-122.272;2022-09-01T19:00:03;11.0;10.8;
49686;PMS5003;36064;38.180;-122.272;2022-09-01T19:05:02;13.0;11.4;
49686;PMS5003;36064;38.180;-122.272;2022-09-01T19:10:02;11.8;11.8;
49686;PMS5003;36064;38.180;-122.272;2022-09-01T19:15:02;10.4;10.0;
49686;PMS5003;36064;38.180;-122.272;2022-09-01T19:20:03;12.0;11.4;
49686;PMS5003;36064;38.180;-122.272;2022-09-01T19:25:03;13.2;10.8;
49686;PMS5003;36064;38.180;-122.272;2022-09-01T19:30:01;10.0;9.6;
49686;PMS5003;36064;38.180;-122.272;2022-09-01T19:35:03;14.0;13.2;
49686;PMS5003;36064;38.180;-122.272;2022-09-01T19:40:01;12.4;10.2;
49686;PMS5003;36064;38.180;-122.272;2022-09-01T19:45:03;12.8;12.0;
49686;PMS5003;36064;38.180;-122.272;2022-09-01T19:55:01;11.4;9.8;
49686;PMS5003;36064;38.180;-122.272;2022-09-01T20:00:04;12.0;10.6;
49686;PMS5003;36064;38.180;-122.272;2022-09-01T20:05:03;12.6;11.4;
49686;PMS5003;36064;38.180;-122.272;2022-09-01T20:10:03;10.0;8.8;
49686;PMS5003;36064;38.180;-122.272;2022-09-01T20:15:03;11.8;11.0;
49686;PMS5003;36064;38.180;-122.272;2022-09-01T20:20:04;9.8;9.4;
49686;PMS5003;36064;38.180;-122.272;2022-09-01T20:25:03;11.6;11.6;
49686;PMS5003;36064;38.180;-122.272;2022-09-01T20:30:02;10.4;10.4;
49686;PMS5003;36064;38.180;-122.272;2022-09-01T20:35:05;11.2;10.6;
49686;PMS5003;36064;38.180;-122.272;2022-09-01T20:40:02;11.2;9.6;
49686;PMS5003;36064;38.180;-122.272;2022-09-01T20:45:04;8.8;8.0;
49686;PMS5003;36064;38.180;-122.272;2022-09-01T20:50:02;10.2;9.0;
49686;PMS5003;36064;38.180;-122.272;2022-09-01T20:55:05;9.8;9.6;
49686;PMS5003;36064;38.180;-122.272;2022-09-01T21:00:03;9.4;8.2;
49686;PMS5003;36064;38.180;-122.272;2022-09-01T21:05:07;9.0;8.6;
49686;PMS5003;36064;38.180;-122.272;2022-09-01T21:10:02;9.0;8.2;
49686;PMS5003;36064;38.180;-122.272;2022-09-01T21:15:03;10.6;10.0;
49686;PMS5003;36064;38.180;-122.272;2022-09-01T21:20:05;11.8;11.2;
49686;PMS5003;36064;38.180;-122.272;2022-09-01T21:25:00;9.8;9.8;
49686;PMS5003;36064;38.180;-122.272;2022-09-01T21:30:04;8.2;8.2;
49686;PMS5003;36064;38.180;-122.272;2022-09-01T21:35:01;8.8;8.6;
49686;PMS5003;36064;38.180;-122.272;2022-09-01T21:40:00;13.0;10.2;
49686;PMS5003;36064;38.180;-122.272;2022-09-01T21:45:01;9.6;8.2;
49686;PMS5003;36064;38.180;-122.272;2022-09-01T21:50:00;8.8;8.4;
49686;PMS5003;36064;38.180;-122.272;2022-09-01T21:55:00;11.2;10.6;
49686;PMS5003;36064;38.180;-122.272;2022-09-01T22:00:01;13.4;12.2;
49686;PMS5003;36064;38.180;-122.272;2022-09-01T22:05:01;13.4;11.6;
49686;PMS5003;36064;38.180;-122.272;2022-09-01T22:10:00;9.6;8.0;
49686;PMS5003;36064;38.180;-122.272;2022-09-01T22:15:01;9.2;8.4;
49686;PMS5003;36064;38.180;-122.272;2022-09-01T22:20:01;7.2;7.2;
49686;PMS5003;36064;38.180;-122.272;2022-09-01T22:25:02;6.2;6.2;
49686;PMS5003;36064;38.180;-122.272;2022-09-01T22:30:00;9.2;8.0;
49686;PMS5003;36064;38.180;-122.272;2022-09-01T22:35:01;9.6;9.2;
49686;PMS5003;36064;38.180;-122.272;2022-09-01T22:40:00;10.2;8.8;
49686;PMS5003;36064;38.180;-122.272;2022-09-01T22:45:00;8.6;7.2;
49686;PMS5003;36064;38.180;-122.272;2022-09-01T22:50:01;8.2;7.2;
49686;PMS5003;36064;38.180;-122.272;2022-09-01T22:55:00;9.0;8.0;
49686;PMS5003;36064;38.180;-122.272;2022-09-01T23:00:01;9.2;8.0;
49686;PMS5003;36064;38.180;-122.272;2022-09-01T23:05:01;7.6;7.8;
49686;PMS5003;36064;38.180;-122.272;2022-09-01T23:10:00;8.0;6.8;
49686;PMS5003;36064;38.180;-122.272;2022-09-01T23:15:01;6.8;6.6;
49686;PMS5003;36064;38.180;-122.272;2022-09-01T23:20:01;8.6;7.4;
49686;PMS5003;36064;38.180;-122.272;2022-09-01T23:25:00;9.6;8.6;
49686;PMS5003;36064;38.180;-122.272;2022-09-01T23:30:00;8.0;7.2;
49686;PMS5003;36064;38.180;-122.272;2022-09-01T23:35:01;8.8;8.0;
49686;PMS5003;36064;38.180;-122.272;2022-09-01T23:40:00;5.8;5.4;
49686;PMS5003;36064;38.180;-122.272;2022-09-01T23:45:00;5.0;5.0;
49686;PMS5003;36064;38.180;-122.272;2022-09-01T23:50:01;6.6;6.2;
49686;PMS5003;36064;38.180;-122.272;2022-09-01T23:55:00;7.2;6.2;
